createdAt,value
2022-11-30T00:00:47.179Z,1.00
2022-11-30T00:06:58.567Z,1.05
2022-11-30T00:13:09.423Z,0.50
2022-11-30T00:19:20.661Z,1.42
2022-11-30T00:25:33.990Z,0.90
2022-11-30T00:31:44.870Z,1.45
2022-11-30T00:37:56.026Z,1.20
2022-11-30T00:44:14.436Z,0.98
2022-11-30T00:50:28.596Z,1.52
2022-11-30T00:56:42.202Z,1.30
2022-11-30T01:02:53.077Z,1.37
2022-11-30T01:09:05.505Z,0.62
2022-11-30T01:15:19.941Z,0.80
2022-11-30T01:21:32.451Z,0.82
2022-11-30T01:27:43.739Z,1.10
2022-11-30T01:34:00.181Z,1.00
2022-11-30T01:46:43.118Z,0.98
2022-11-30T01:52:54.083Z,1.17
2022-11-30T01:59:07.149Z,1.60
2022-11-30T02:05:21.439Z,1.35
2022-11-30T02:11:34.021Z,0.90
2022-11-30T02:17:49.844Z,1.45
2022-11-30T02:24:40.319Z,1.30
2022-11-30T02:30:54.053Z,1.02
2022-11-30T02:37:10.538Z,1.05
2022-11-30T02:43:24.986Z,0.95
2022-11-30T02:49:44.705Z,0.93
2022-11-30T02:55:59.242Z,0.90
2022-11-30T03:02:09.721Z,1.02
2022-11-30T03:08:25.994Z,0.90
2022-11-30T03:14:41.906Z,1.12
2022-11-30T03:20:55.651Z,1.00
2022-11-30T03:27:10.387Z,1.10
2022-11-30T03:33:22.375Z,1.07
2022-11-30T03:39:34.118Z,1.20
2022-11-30T03:45:49.912Z,1.02
2022-11-30T03:52:09.304Z,1.13
2022-11-30T03:58:26.147Z,0.80
2022-11-30T04:04:37.988Z,0.93
2022-11-30T04:10:57.056Z,1.20
2022-11-30T04:17:08.696Z,1.30
2022-11-30T04:23:20.512Z,1.40
2022-11-30T04:29:34.332Z,1.47
2022-11-30T04:35:50.662Z,1.00
2022-11-30T04:42:09.137Z,1.00
2022-11-30T04:48:23.935Z,1.00
2022-11-30T04:54:40.222Z,1.20
2022-11-30T05:00:54.096Z,1.35
2022-11-30T05:07:10.607Z,1.10
2022-11-30T05:13:24.811Z,1.02
2022-11-30T05:19:39.182Z,1.42
2022-11-30T05:25:53.361Z,1.37
2022-11-30T05:32:06.633Z,1.50
2022-11-30T05:38:20.870Z,1.95
2022-11-30T05:44:34.493Z,2.00
2022-11-30T05:50:47.002Z,2.22
2022-11-30T05:56:58.074Z,3.00
2022-11-30T06:03:12.826Z,1.85
2022-11-30T06:09:23.688Z,2.50
2022-11-30T06:15:40.073Z,2.52
2022-11-30T06:21:54.768Z,3.60
2022-11-30T06:28:05.245Z,2.70
2022-11-30T06:34:21.338Z,2.35
2022-11-30T06:40:33.258Z,3.00
2022-11-30T06:46:45.047Z,2.52
2022-11-30T06:52:56.909Z,2.58
2022-11-30T06:59:16.728Z,2.72
2022-11-30T07:05:30.146Z,3.30
2022-11-30T07:11:41.374Z,2.42
2022-11-30T07:17:52.229Z,2.95
2022-11-30T07:24:21.262Z,3.02
2022-11-30T07:30:31.486Z,2.50
2022-11-30T07:36:46.335Z,2.00
2022-11-30T07:43:04.257Z,2.50
2022-11-30T07:49:22.457Z,2.20
2022-11-30T07:55:36.480Z,1.72
2022-11-30T08:01:50.196Z,3.00
2022-11-30T08:07:59.139Z,1.45
2022-11-30T08:14:13.203Z,1.32
2022-11-30T08:20:24.705Z,1.50
2022-11-30T08:26:36.483Z,1.77
2022-11-30T08:32:47.689Z,2.05
2022-11-30T08:39:05.780Z,2.05
2022-11-30T08:45:18.950Z,1.72
2022-11-30T08:51:42.162Z,2.17
2022-11-30T08:57:47.948Z,1.82
2022-11-30T09:04:00.610Z,2.10
2022-11-30T09:10:13.812Z,2.12
2022-11-30T09:16:27.868Z,2.65
2022-11-30T09:22:43.420Z,2.25
2022-11-30T09:28:54.546Z,1.42
2022-11-30T09:35:12.590Z,1.82
2022-11-30T09:41:28.982Z,2.12
2022-11-30T09:47:45.421Z,1.42
2022-11-30T09:54:02.543Z,1.90
2022-11-30T10:00:19.383Z,2.17
2022-11-30T10:06:36.869Z,1.30
2022-11-30T10:12:52.713Z,2.35
2022-11-30T10:19:08.866Z,1.60
2022-11-30T10:25:22.143Z,1.83
2022-11-30T10:31:37.635Z,1.17
2022-11-30T10:37:50.959Z,1.27
2022-11-30T10:44:03.613Z,1.95
2022-11-30T10:50:21.819Z,2.20
2022-11-30T10:56:32.732Z,1.20
2022-11-30T11:02:45.947Z,1.98
2022-11-30T11:08:57.238Z,1.77
2022-11-30T11:15:19.246Z,1.62
2022-11-30T11:21:30.488Z,2.08
2022-11-30T11:34:08.094Z,1.63
2022-11-30T11:40:24.418Z,1.67
2022-11-30T11:46:37.696Z,1.30
2022-11-30T11:52:51.756Z,2.12
2022-11-30T11:59:06.289Z,1.57
2022-11-30T12:05:17.524Z,1.67
2022-11-30T12:11:32.678Z,1.20
2022-11-30T12:17:51.703Z,1.32
2022-11-30T12:24:28.344Z,1.02
2022-11-30T12:30:41.868Z,1.17
2022-11-30T12:36:57.347Z,1.25
2022-11-30T12:43:11.934Z,1.50
2022-11-30T12:49:35.556Z,0.88
2022-11-30T12:55:47.793Z,1.05
2022-11-30T13:02:10.499Z,0.98
2022-11-30T13:08:25.263Z,1.17
2022-11-30T13:14:36.258Z,1.10
2022-11-30T13:20:51.106Z,0.93
2022-11-30T13:27:08.111Z,0.85
2022-11-30T13:40:28.136Z,3.27
2022-11-30T13:46:42.650Z,3.17
2022-11-30T13:53:18.455Z,1.80
2022-11-30T13:59:50.755Z,2.22
2022-11-30T14:06:14.882Z,1.62
2022-11-30T14:19:29.000Z,1.60
2022-11-30T14:25:38.049Z,1.65
2022-11-30T14:31:58.097Z,1.82
2022-11-30T14:38:14.119Z,1.00
2022-11-30T14:44:32.532Z,1.30
2022-11-30T14:50:45.758Z,1.57
2022-11-30T14:57:01.674Z,1.00
2022-11-30T15:03:18.787Z,0.97
2022-11-30T15:09:34.212Z,1.37
2022-11-30T15:15:59.396Z,1.25
2022-11-30T15:22:14.584Z,1.12
2022-11-30T15:28:24.610Z,0.90
2022-11-30T15:34:40.041Z,1.17
2022-11-30T15:40:53.441Z,1.20
2022-11-30T15:47:07.895Z,1.00
2022-11-30T15:59:45.339Z,0.85
2022-11-30T16:06:05.989Z,0.98
2022-11-30T16:12:19.522Z,1.00
2022-11-30T16:18:34.458Z,0.62
2022-11-30T16:24:48.656Z,1.20
2022-11-30T16:31:03.680Z,0.90
2022-11-30T16:37:17.991Z,1.10
2022-11-30T16:43:30.228Z,0.78
2022-11-30T16:49:40.894Z,0.75
2022-11-30T16:55:54.618Z,0.88
2022-11-30T17:02:05.935Z,1.07
2022-11-30T17:08:18.527Z,0.88
2022-11-30T17:14:30.565Z,0.93
2022-11-30T17:20:44.897Z,1.15
2022-11-30T17:26:56.983Z,1.20
2022-11-30T17:33:08.880Z,0.90
2022-11-30T17:39:22.705Z,0.72
2022-11-30T17:45:35.707Z,1.10
2022-11-30T17:51:46.429Z,1.00
2022-11-30T17:58:01.107Z,0.75
2022-11-30T18:04:14.426Z,0.80
2022-11-30T18:10:30.369Z,0.95
2022-11-30T18:16:41.806Z,0.60
2022-11-30T18:22:56.246Z,0.60
2022-11-30T18:29:12.623Z,0.65
2022-11-30T18:35:23.296Z,0.95
2022-11-30T18:41:33.438Z,0.80
2022-11-30T18:47:49.507Z,0.60
2022-11-30T18:54:08.311Z,0.55
2022-11-30T19:00:27.129Z,0.93
2022-11-30T19:06:38.253Z,0.60
2022-11-30T19:12:47.975Z,0.82
2022-11-30T19:19:00.032Z,0.40
2022-11-30T19:25:17.758Z,0.70
2022-11-30T19:31:26.757Z,0.40
2022-11-30T19:37:40.213Z,0.60
2022-11-30T19:43:55.791Z,0.60
2022-11-30T19:50:02.987Z,0.57
2022-11-30T19:56:15.671Z,0.57
2022-11-30T20:02:33.585Z,0.70
2022-11-30T20:08:45.752Z,0.62
2022-11-30T20:14:58.116Z,0.60
2022-11-30T20:21:18.983Z,0.60
2022-11-30T20:27:30.076Z,0.65
2022-11-30T20:33:41.399Z,0.50
2022-11-30T20:39:58.233Z,0.93
2022-11-30T20:46:18.285Z,0.40
2022-11-30T20:52:33.212Z,0.90
2022-11-30T20:58:48.795Z,0.53
2022-11-30T21:05:05.254Z,0.50
2022-11-30T21:11:14.596Z,0.50
2022-11-30T21:17:27.074Z,0.62
2022-11-30T21:23:35.998Z,0.60
2022-11-30T21:29:51.617Z,0.50
2022-11-30T21:36:06.715Z,0.50
2022-11-30T21:42:21.402Z,0.50
2022-11-30T21:48:38.600Z,0.60
2022-11-30T21:54:52.828Z,0.68
2022-11-30T22:01:08.004Z,0.75
2022-11-30T22:07:20.245Z,0.72
2022-11-30T22:13:37.224Z,0.60
2022-11-30T22:19:51.818Z,1.10
2022-11-30T22:26:17.660Z,1.22
2022-11-30T22:32:28.460Z,0.80
2022-11-30T22:38:38.676Z,1.30
2022-11-30T22:44:50.533Z,0.80
2022-11-30T22:51:04.495Z,1.22
2022-11-30T22:57:15.470Z,1.45
2022-11-30T23:03:32.631Z,1.15
2022-11-30T23:09:47.044Z,1.10
2022-11-30T23:16:05.188Z,0.98
2022-11-30T23:22:18.542Z,0.90
2022-11-30T23:28:29.756Z,0.75
2022-11-30T23:34:50.640Z,0.80
2022-11-30T23:41:03.320Z,0.80
2022-11-30T23:47:18.583Z,1.10
2022-11-30T23:53:29.209Z,1.20
2022-11-30T23:59:42.535Z,0.80
